Time;durP1;ratioP1;P1;durP2;ratioP2;P2;SDS_P1;SDS_P2;PMS_P1;PMS_P2;Temp;Humidity;BMP_temperature;BMP_pressure;BME280_temperature;BME280_humidity;BME280_pressure;Samples;Min_cycle;Max_cycle;Signal;HPM_P1;HPM_P2
2021/03/24 00:00:53;;;;;;;0.30;0.30;;;;;;;2.43;80.88;98405.84;5014280;28;20021;-93
2021/03/24 00:03:19;;;;;;;0.30;0.30;;;;;;;2.53;79.11;98435.06;5013646;28;20040;-95
2021/03/24 00:05:50;;;;;;;1.05;1.05;;;;;;;2.34;78.15;98367.28;5013336;28;20046;-94
2021/03/24 00:08:18;;;;;;;0.20;0.20;;;;;;;2.61;78.61;98414.00;5014054;28;20539;-93
2021/03/24 00:10:43;;;;;;;0.60;0.60;;;;;;;2.57;78.51;98410.53;5013635;28;20065;-91
2021/03/24 00:13:09;;;;;;;0.40;0.40;;;;;;;2.52;78.61;98398.06;5013447;28;20044;-91
2021/03/24 00:15:35;;;;;;;0.28;0.28;;;;;;;2.37;78.96;98380.91;5013494;28;20061;-90
2021/03/24 00:18:03;;;;;;;1.48;1.48;;;;;;;2.40;78.95;98377.44;5013320;28;20029;-90
2021/03/24 00:20:32;;;;;;;0.80;0.80;;;;;;;2.38;78.82;98373.53;5013774;28;20034;-90
2021/03/24 00:22:59;;;;;;;0.30;0.30;;;;;;;2.62;78.45;98407.41;5012917;28;20029;-91
2021/03/24 00:25:25;;;;;;;0.33;0.33;;;;;;;2.64;77.67;98405.06;5013231;28;20413;-91
2021/03/24 00:27:51;;;;;;;1.10;1.10;;;;;;;2.61;77.36;98403.09;5013257;28;20273;-90
2021/03/24 00:30:24;;;;;;;0.25;0.25;;;;;;;2.44;77.44;98386.38;5013659;28;20053;-90
2021/03/24 00:32:50;;;;;;;2.08;1.95;;;;;;;2.47;78.96;98389.50;5013699;28;20038;-91
2021/03/24 00:35:16;;;;;;;2.53;2.38;;;;;;;2.03;78.39;98347.03;5013744;28;20116;-94
2021/03/24 00:37:42;;;;;;;0.30;0.30;;;;;;;2.28;77.84;98387.94;5013407;28;20124;-93
2021/03/24 00:40:12;;;;;;;0.30;0.30;;;;;;;1.98;78.01;98358.31;5012919;28;20394;-94
2021/03/24 00:42:37;;;;;;;1.23;0.82;;;;;;;2.24;78.29;98401.53;5013536;28;20061;-91
2021/03/24 00:45:07;;;;;;;0.38;0.38;;;;;;;2.00;78.16;98350.53;5013763;28;20123;-94
2021/03/24 00:47:33;;;;;;;1.27;0.98;;;;;;;2.12;79.20;98401.91;5013435;28;20100;-93
2021/03/24 00:49:59;;;;;;;0.47;0.47;;;;;;;1.61;79.43;98320.53;5013277;28;20021;-91
2021/03/24 00:52:24;;;;;;;0.73;0.55;;;;;;;1.90;79.39;98379.31;5013191;28;20478;-92
2021/03/24 00:54:50;;;;;;;0.60;0.60;;;;;;;1.96;78.99;98387.88;5012909;28;20034;-94
2021/03/24 00:57:15;;;;;;;0.30;0.30;;;;;;;1.73;79.60;98331.03;5012763;28;20055;-93
2021/03/24 00:59:41;;;;;;;0.68;0.68;;;;;;;1.94;79.94;98373.88;5012774;28;20035;-94
2021/03/24 01:02:06;;;;;;;0.40;0.40;;;;;;;1.62;79.84;98320.16;5012164;28;20405;-93
2021/03/24 01:04:32;;;;;;;1.27;0.73;;;;;;;1.94;78.93;98355.56;5012591;28;20072;-93
2021/03/24 01:06:57;;;;;;;0.30;0.30;;;;;;;2.08;78.96;98362.22;5012763;28;20140;-93
2021/03/24 01:09:24;;;;;;;4.43;2.60;;;;;;;2.15;79.14;98368.47;5012671;28;20367;-92
2021/03/24 01:11:49;;;;;;;0.70;0.70;;;;;;;2.08;79.52;98365.72;5012529;28;20038;-92
2021/03/24 01:14:15;;;;;;;1.48;1.40;;;;;;;2.05;80.64;98364.53;5012594;28;20029;-91
2021/03/24 01:16:40;;;;;;;0.40;0.40;;;;;;;1.96;79.75;98358.69;5012954;28;20029;-92
2021/03/24 01:19:06;;;;;;;0.28;0.28;;;;;;;1.69;78.69;98324.03;5012595;28;20026;-94
2021/03/24 01:21:32;;;;;;;0.55;0.55;;;;;;;1.90;78.06;98345.84;5012354;28;20076;-92
2021/03/24 01:23:57;;;;;;;0.30;0.30;;;;;;;2.01;77.53;98354.81;5012314;28;20060;-93
2021/03/24 01:26:23;;;;;;;0.30;0.30;;;;;;;2.02;75.82;98331.84;5012431;28;20037;-91
2021/03/24 01:28:58;;;;;;;0.85;0.70;;;;;;;2.03;76.05;98338.88;5012386;28;20030;-92
2021/03/24 01:31:31;;;;;;;0.30;0.30;;;;;;;1.96;77.55;98347.03;5012345;28;20029;-90
2021/03/24 01:33:58;;;;;;;1.95;1.58;;;;;;;1.65;78.06;98307.69;5012890;28;20026;-91
2021/03/24 01:36:24;;;;;;;1.35;0.70;;;;;;;1.75;78.38;98333.41;5012434;28;20045;-90
2021/03/24 01:38:51;;;;;;;0.50;0.50;;;;;;;1.80;79.08;98346.63;5012344;28;20033;-94
2021/03/24 01:41:17;;;;;;;0.30;0.30;;;;;;;1.45;80.09;98299.09;5012547;28;20048;-92
2021/03/24 01:43:43;;;;;;;0.30;0.30;;;;;;;1.49;80.72;98302.63;5012743;28;20026;-92
2021/03/24 01:46:17;;;;;;;3.10;0.88;;;;;;;1.60;80.96;98330.63;5012557;28;20504;-94
2021/03/24 01:48:45;;;;;;;0.45;0.45;;;;;;;1.62;80.96;98336.47;5012129;28;20029;-92
2021/03/24 01:51:11;;;;;;;1.00;1.00;;;;;;;1.68;80.59;98333.38;5012650;28;20076;-93
2021/03/24 01:53:38;;;;;;;0.30;0.30;;;;;;;1.64;81.49;98334.13;5011791;28;20030;-93
2021/03/24 01:56:05;;;;;;;0.30;0.30;;;;;;;1.60;82.18;98324.41;5012562;28;20026;-92
2021/03/24 01:58:32;;;;;;;0.45;0.45;;;;;;;1.55;81.96;98331.00;5012302;28;20079;-93
2021/03/24 02:00:59;;;;;;;0.63;0.63;;;;;;;1.40;80.96;98291.31;5012035;28;20038;-91
2021/03/24 02:03:31;;;;;;;0.30;0.30;;;;;;;1.54;81.69;98296.78;5012599;28;20045;-92
2021/03/24 02:06:01;;;;;;;0.98;0.90;;;;;;;1.62;81.26;98309.25;5011749;28;20073;-92
2021/03/24 02:08:32;;;;;;;1.58;1.48;;;;;;;1.71;81.50;98311.59;5011916;28;20030;-92
2021/03/24 02:11:18;;;;;;;0.77;0.77;;;;;;;1.72;81.83;98296.81;5028688;28;20040;-92
2021/03/24 02:13:52;;;;;;;0.30;0.30;;;;;;;2.02;81.30;98327.19;5012858;28;20470;-91
2021/03/24 02:16:31;;;;;;;0.38;0.38;;;;;;;2.17;80.78;98329.94;5016242;28;20057;-92
2021/03/24 02:19:01;;;;;;;0.55;0.55;;;;;;;2.26;80.55;98330.28;5015651;28;20088;-92
2021/03/24 02:21:35;;;;;;;0.30;0.30;;;;;;;2.34;80.62;98338.09;5016175;28;20038;-90
2021/03/24 02:24:36;;;;;;;0.73;0.73;;;;;;;2.36;81.33;98338.47;5016088;28;20064;-91
2021/03/24 02:27:17;;;;;;;0.38;0.38;;;;;;;2.34;81.70;98345.50;5015431;28;20068;-92
2021/03/24 02:29:50;;;;;;;1.30;1.30;;;;;;;2.11;82.19;98301.50;5015385;28;20022;-92
2021/03/24 02:32:18;;;;;;;0.60;0.60;;;;;;;2.09;82.13;98292.94;5015515;28;20038;-92
2021/03/24 02:34:46;;;;;;;0.35;0.35;;;;;;;2.26;82.74;98325.63;5015212;28;20029;-91
2021/03/24 02:37:13;;;;;;;0.40;0.40;;;;;;;2.17;83.90;98322.50;5015330;28;20490;-90
2021/03/24 02:39:42;;;;;;;0.68;0.68;;;;;;;2.27;84.49;98329.91;5015507;28;20025;-91
2021/03/24 02:42:10;;;;;;;1.85;1.73;;;;;;;2.27;85.62;98343.53;5015705;28;20030;-92
2021/03/24 02:44:37;;;;;;;0.25;0.25;;;;;;;2.16;86.16;98325.63;5015296;28;20029;-91
2021/03/24 02:47:05;;;;;;;1.30;1.23;;;;;;;2.25;87.11;98337.69;5015368;28;20034;-91
2021/03/24 02:49:31;;;;;;;0.40;0.40;;;;;;;2.02;87.85;98301.88;5014979;28;20029;-91
2021/03/24 02:51:57;;;;;;;0.60;0.60;;;;;;;2.16;89.09;98320.19;5015119;28;20030;-92
2021/03/24 02:54:27;;;;;;;0.90;0.90;;;;;;;1.93;89.98;98294.09;5014831;28;20524;-95
2021/03/24 02:56:53;;;;;;;0.40;0.40;;;;;;;2.03;90.70;98298.78;5015808;28;20033;-92
2021/03/24 02:59:18;;;;;;;0.95;0.95;;;;;;;1.93;91.13;98302.25;5015123;28;20553;-93
2021/03/24 03:01:55;;;;;;;1.55;1.00;;;;;;;1.79;91.44;98285.16;5015062;28;20628;-93
2021/03/24 03:04:37;;;;;;;0.30;0.30;;;;;;;1.66;92.02;98287.47;5015458;28;20120;-92
2021/03/24 03:07:09;;;;;;;0.32;0.32;;;;;;;1.79;92.42;98302.28;5014875;28;20057;-92
2021/03/24 03:09:44;;;;;;;0.73;0.73;;;;;;;1.64;92.66;98285.13;5015237;28;20026;-93
2021/03/24 03:12:38;;;;;;;1.33;1.33;;;;;;;1.66;92.52;98282.03;5014805;28;20030;-93
2021/03/24 03:15:09;;;;;;;0.30;0.30;;;;;;;1.63;92.66;98293.66;5014563;28;20072;-93
2021/03/24 03:17:45;;;;;;;0.30;0.30;;;;;;;1.77;92.22;98285.53;5014580;28;20061;-92
2021/03/24 03:20:27;;;;;;;0.55;0.55;;;;;;;1.77;91.57;98271.13;5015121;28;20026;-92
2021/03/24 03:23:02;;;;;;;0.30;0.30;;;;;;;1.69;91.35;98259.44;5014687;28;20034;-94
2021/03/24 03:25:37;;;;;;;1.20;1.20;;;;;;;1.89;91.07;98273.47;5014270;28;20046;-93
2021/03/24 03:28:10;;;;;;;0.93;0.93;;;;;;;1.99;90.96;98286.31;5031707;28;20033;-93
2021/03/24 03:30:39;;;;;;;0.70;0.70;;;;;;;1.91;90.61;98295.66;5014850;28;20038;-90
2021/03/24 03:33:10;;;;;;;0.70;0.70;;;;;;;2.05;91.54;98312.00;5014518;28;20029;-92
2021/03/24 03:35:37;;;;;;;0.73;0.73;;;;;;;2.11;90.64;98310.44;5014968;28;20030;-91
2021/03/24 03:38:06;;;;;;;0.45;0.45;;;;;;;1.97;90.12;98280.47;5014284;28;20422;-93
2021/03/24 03:40:34;;;;;;;0.40;0.40;;;;;;;2.16;89.90;98299.16;5014565;28;20037;-93
2021/03/24 03:43:02;;;;;;;2.20;1.50;;;;;;;2.13;89.91;98308.09;5012805;28;20022;-92
2021/03/24 03:45:28;;;;;;;;;;;;;;;2.30;88.44;98307.31;5014693;28;20103;-91
2021/03/24 03:47:54;;;;;;;0.38;0.38;;;;;;;2.17;88.52;98306.16;5014083;28;19965;-90
2021/03/24 03:50:23;;;;;;;0.40;0.40;;;;;;;1.97;88.56;98275.81;5014792;28;20022;-92
2021/03/24 03:52:57;;;;;;;0.20;0.20;;;;;;;1.99;87.87;98276.19;5014109;28;20034;-92
2021/03/24 03:56:00;;;;;;;1.10;1.10;;;;;;;2.19;87.75;98311.22;5014481;28;20033;-93
2021/03/24 03:59:03;;;;;;;0.40;0.40;;;;;;;2.14;88.77;98317.84;5014381;28;20037;-91
2021/03/24 04:01:35;;;;;;;0.20;0.20;;;;;;;2.00;88.94;98287.88;5014499;28;20045;-93
2021/03/24 04:04:12;;;;;;;1.20;0.73;;;;;;;1.96;90.25;98287.88;5013816;28;20038;-92
2021/03/24 04:06:45;;;;;;;0.65;0.65;;;;;;;1.99;90.80;98292.53;5013405;28;20502;-89
2021/03/24 04:09:12;;;;;;;0.52;0.52;;;;;;;2.16;90.87;98320.97;5014015;28;20034;-90
2021/03/24 04:11:47;;;;;;;0.30;0.30;;;;;;;1.96;91.53;98298.78;5013707;28;20045;-90
2021/03/24 04:14:17;;;;;;;0.30;0.30;;;;;;;2.00;91.50;98293.31;5013546;28;20038;-90
2021/03/24 04:16:44;;;;;;;0.22;0.22;;;;;;;2.00;91.56;98331.44;5013848;28;20113;-89
2021/03/24 04:19:13;;;;;;;0.30;0.30;;;;;;;2.00;91.28;98301.47;5013614;28;20036;-90
2021/03/24 04:21:42;;;;;;;0.30;0.30;;;;;;;1.96;91.99;98312.38;5013434;28;20478;-89
2021/03/24 04:24:13;;;;;;;0.20;0.20;;;;;;;1.70;93.84;98303.78;5013421;28;20029;-91
2021/03/24 04:26:45;;;;;;;0.65;0.65;;;;;;;1.82;95.24;98333.38;5014102;28;20030;-91
2021/03/24 04:29:22;;;;;;;0.30;0.30;;;;;;;1.73;95.74;98317.44;5013678;28;20030;-92
2021/03/24 04:31:54;;;;;;;0.30;0.30;;;;;;;1.62;96.88;98313.91;5030443;28;20030;-91
2021/03/24 04:34:21;;;;;;;0.40;0.40;;;;;;;1.86;97.43;98351.31;5013555;28;20022;-93
2021/03/24 04:36:52;;;;;;;0.32;0.32;;;;;;;1.82;97.46;98360.63;5012602;28;20386;-93
2021/03/24 04:39:28;;;;;;;0.40;0.40;;;;;;;1.57;98.12;98323.22;5029628;28;20026;-94
2021/03/24 04:41:57;;;;;;;0.30;0.30;;;;;;;1.53;98.62;98294.44;5030373;28;20030;-93
2021/03/24 04:44:29;;;;;;;0.35;0.35;;;;;;;1.87;99.12;98352.09;5012934;28;20079;-94
2021/03/24 04:47:05;;;;;;;0.40;0.40;;;;;;;1.64;99.67;98311.56;5013574;28;20041;-93
2021/03/24 04:49:38;;;;;;;0.20;0.20;;;;;;;1.89;100.00;98352.47;5013136;28;20489;-94
2021/03/24 04:52:05;;;;;;;0.30;0.30;;;;;;;1.91;100.00;98350.91;5013577;28;20405;-92
2021/03/24 04:54:34;;;;;;;0.38;0.38;;;;;;;1.96;100.00;98339.63;5012896;28;20121;-92
2021/03/24 04:57:06;;;;;;;0.30;0.30;;;;;;;2.01;100.00;98362.97;5012898;28;20068;-90
2021/03/24 04:59:46;;;;;;;0.40;0.40;;;;;;;1.84;100.00;98347.41;5029749;28;20517;-90
2021/03/24 05:02:17;;;;;;;0.20;0.20;;;;;;;1.76;100.00;98343.09;5013515;28;20038;-89
2021/03/24 05:05:13;;;;;;;0.20;0.20;;;;;;;1.76;100.00;98337.66;5012724;28;20022;-90
2021/03/24 05:07:52;;;;;;;0.57;0.57;;;;;;;1.73;100.00;98336.50;5012915;28;20046;-89
2021/03/24 05:10:21;;;;;;;0.32;0.32;;;;;;;1.92;100.00;98347.03;5012899;28;20029;-89
2021/03/24 05:12:56;;;;;;;0.60;0.60;;;;;;;1.85;100.00;98354.41;5012553;28;20029;-89
2021/03/24 05:15:24;;;;;;;1.95;1.17;;;;;;;1.76;100.00;98324.81;5012764;28;20498;-89
2021/03/24 05:17:51;;;;;;;0.52;0.52;;;;;;;1.98;100.00;98356.38;5012550;28;20038;-93
2021/03/24 05:20:24;;;;;;;0.40;0.40;;;;;;;2.00;100.00;98361.41;5013105;28;20478;-94
2021/03/24 05:22:51;;;;;;;0.30;0.30;;;;;;;1.95;100.00;98345.47;5012819;28;20038;-94
2021/03/24 05:25:21;;;;;;;0.20;0.20;;;;;;;2.09;100.00;98359.09;5013123;28;20116;-88
2021/03/24 05:28:12;;;;;;;0.90;0.90;;;;;;;2.02;100.00;98356.38;5028215;28;20037;-88
2021/03/24 05:30:40;;;;;;;4.03;2.17;;;;;;;1.96;100.00;98347.03;5012971;28;20466;-88
2021/03/24 05:33:27;;;;;;;1.38;0.95;;;;;;;1.93;100.00;98356.00;5012438;28;20052;-88
2021/03/24 05:36:05;;;;;;;0.20;0.20;;;;;;;1.99;100.00;98362.59;5011945;28;20410;-85
2021/03/24 05:38:36;;;;;;;0.60;0.60;;;;;;;1.81;100.00;98316.25;5011905;28;20026;-86
2021/03/24 05:41:42;;;;;;;1.38;1.27;;;;;;;2.13;100.00;98359.09;5012307;28;20454;-89
2021/03/24 05:44:46;;;;;;;1.00;0.70;;;;;;;2.19;99.14;98357.53;5012552;28;20096;-89
2021/03/24 05:47:17;;;;;;;0.20;0.20;;;;;;;2.04;99.21;98321.34;5012259;28;20030;-88
2021/03/24 05:49:46;;;;;;;0.52;0.52;;;;;;;2.11;98.99;98324.06;5015483;28;20030;-89
2021/03/24 05:52:20;;;;;;;0.35;0.35;;;;;;;2.53;98.79;98366.13;5016310;28;20022;-89
2021/03/24 05:55:14;;;;;;;1.85;0.68;;;;;;;2.20;97.43;98289.03;5016042;28;20087;-90
2021/03/24 05:57:50;;;;;;;0.93;0.93;;;;;;;2.91;96.93;98354.34;5015333;28;20076;-88
2021/03/24 06:00:15;;;;;;;1.58;1.48;;;;;;;3.47;95.14;98317.88;5015806;28;20026;-88
2021/03/24 06:02:56;;;;;;;0.70;0.70;;;;;;;4.75;90.57;98319.63;5015995;28;20108;-90
2021/03/24 06:05:30;;;;;;;0.57;0.57;;;;;;;5.67;86.10;98313.00;5015385;28;20050;-90
2021/03/24 06:08:20;;;;;;;0.20;0.20;;;;;;;6.90;80.38;98365.13;5015504;28;20034;-87
2021/03/24 06:11:02;;;;;;;0.45;0.45;;;;;;;7.59;74.51;98340.66;5015807;28;20037;-86
2021/03/24 06:14:01;;;;;;;0.50;0.50;;;;;;;7.15;72.70;98374.88;5015791;28;20025;-85
2021/03/24 06:16:59;;;;;;;1.40;1.40;;;;;;;6.29;78.22;98372.06;5015449;28;20029;-81
2021/03/24 06:19:41;;;;;;;0.47;0.47;;;;;;;5.53;75.88;98379.75;5008344;28;20102;-86
2021/03/24 06:22:28;;;;;;;1.00;0.90;;;;;;;4.77;77.63;98333.66;5015470;28;20076;-88
2021/03/24 06:25:07;;;;;;;1.03;1.03;;;;;;;4.80;78.33;98388.38;5016001;28;20051;-88
2021/03/24 06:27:42;;;;;;;0.73;0.73;;;;;;;4.65;78.48;98381.44;5015360;28;20279;-88
2021/03/24 06:30:30;;;;;;;0.73;0.73;;;;;;;4.46;79.26;98377.31;5015819;28;20100;-88
2021/03/24 06:33:35;;;;;;;0.75;0.75;;;;;;;4.28;80.56;98390.34;5015405;28;20049;-89
2021/03/24 06:36:06;;;;;;;0.70;0.70;;;;;;;3.74;82.49;98350.13;5004897;28;20049;-90
2021/03/24 06:38:45;;;;;;;0.95;0.68;;;;;;;3.77;83.86;98376.63;5015517;28;20030;-88
2021/03/24 06:41:14;;;;;;;0.90;0.82;;;;;;;3.66;84.18;98363.81;5014918;28;20080;-89
2021/03/24 06:44:01;;;;;;;0.82;0.57;;;;;;;3.96;84.63;98414.41;5014831;28;20026;-87
2021/03/24 06:46:39;;;;;;;0.40;0.40;;;;;;;3.69;86.31;98370.41;5015043;28;20033;-89
2021/03/24 06:49:42;;;;;;;0.40;0.40;;;;;;;3.87;84.83;98403.91;5014903;28;20048;-87
2021/03/24 06:52:16;;;;;;;1.27;1.17;;;;;;;3.52;85.07;98387.69;5015305;28;20041;-89
2021/03/24 06:54:54;;;;;;;0.98;0.98;;;;;;;3.67;85.01;98405.56;5015142;28;20470;-88
2021/03/24 06:57:20;;;;;;;1.95;1.17;;;;;;;3.78;85.30;98416.44;5014863;28;20029;-88
2021/03/24 06:59:54;;;;;;;1.77;1.67;;;;;;;3.82;85.66;98431.63;5013845;28;20478;-87
2021/03/24 07:02:26;;;;;;;0.75;0.75;;;;;;;3.53;86.44;98395.47;5014608;28;20025;-89
2021/03/24 07:05:16;;;;;;;1.40;1.33;;;;;;;3.73;85.63;98449.66;5014205;28;20116;-88
2021/03/24 07:08:16;;;;;;;0.40;0.40;;;;;;;3.77;86.34;98447.66;5014503;28;20034;-88
2021/03/24 07:11:02;;;;;;;0.20;0.20;;;;;;;3.77;84.81;98453.91;5014042;28;20034;-89
2021/03/24 07:13:57;;;;;;;0.20;0.20;;;;;;;3.35;85.14;98394.00;5014389;28;20100;-90
2021/03/24 07:16:25;;;;;;;1.33;1.23;;;;;;;3.70;85.15;98489.47;5014177;28;20516;-88
2021/03/24 07:19:29;;;;;;;0.43;0.43;;;;;;;3.77;85.82;98473.03;5014693;28;20560;-87
2021/03/24 07:22:23;;;;;;;0.30;0.30;;;;;;;3.71;85.70;98482.81;5014375;28;20113;-88
2021/03/24 07:25:26;;;;;;;0.25;0.25;;;;;;;3.65;84.29;98492.59;5014440;28;20026;-87
2021/03/24 07:28:20;;;;;;;0.57;0.57;;;;;;;3.40;81.94;98508.28;5014271;28;20026;-88
2021/03/24 07:31:12;;;;;;;0.20;0.20;;;;;;;3.15;76.34;98527.41;5014504;28;20498;-89
2021/03/24 07:34:04;;;;;;;0.20;0.20;;;;;;;2.58;74.45;98472.06;5014257;28;20029;-87
2021/03/24 07:36:51;;;;;;;0.20;0.20;;;;;;;2.69;73.67;98508.31;5012623;28;20026;-89
2021/03/24 07:39:41;;;;;;;0.20;0.20;;;;;;;2.81;73.70;98562.50;5011927;28;20037;-89
2021/03/24 07:42:35;;;;;;;0.20;0.20;;;;;;;2.65;75.90;98571.03;5012292;28;20029;-89
2021/03/24 07:45:04;;;;;;;0.20;0.20;;;;;;;1.95;76.52;98604.28;5012381;28;20037;-90
2021/03/24 07:47:42;;;;;;;0.40;0.40;;;;;;;1.19;84.16;98557.91;5013777;28;20113;-89
2021/03/24 07:50:30;;;;;;;0.30;0.30;;;;;;;1.14;88.32;98609.94;5013770;28;20088;-88
2021/03/24 07:53:22;;;;;;;0.30;0.30;;;;;;;1.03;90.00;98612.56;5013892;28;20026;-85
2021/03/24 07:56:00;;;;;;;0.30;0.30;;;;;;;0.96;90.38;98577.16;5013771;28;20030;-86
2021/03/24 07:58:59;;;;;;;0.50;0.50;;;;;;;1.18;89.67;98605.31;5013658;28;20048;-87
2021/03/24 08:01:40;;;;;;;0.30;0.30;;;;;;;1.40;88.56;98612.47;5014009;28;20260;-88
2021/03/24 08:04:25;;;;;;;0.20;0.20;;;;;;;1.52;87.52;98560.44;5013267;28;20501;-88
2021/03/24 08:07:19;;;;;;;0.30;0.30;;;;;;;2.00;85.20;98596.50;5013583;28;20061;-88
2021/03/24 08:09:57;;;;;;;0.30;0.30;;;;;;;1.87;84.74;98542.75;5013325;28;20030;-87
2021/03/24 08:12:41;;;;;;;0.20;0.20;;;;;;;2.61;81.85;98580.38;5012369;28;20124;-87
2021/03/24 08:15:33;;;;;;;1.45;1.45;;;;;;;3.26;80.95;98618.25;5013803;28;20076;-86
2021/03/24 08:18:37;;;;;;;0.68;0.68;;;;;;;3.30;77.52;98599.16;5013318;28;20034;-86
2021/03/24 08:21:11;;;;;;;0.68;0.68;;;;;;;3.58;79.37;98594.47;5013117;28;20034;-85
2021/03/24 08:23:50;;;;;;;0.30;0.30;;;;;;;4.19;79.00;98602.53;5012925;28;20030;-86
2021/03/24 08:26:27;;;;;;;0.60;0.60;;;;;;;4.92;77.84;98636.19;5013370;28;20030;-85
2021/03/24 08:29:06;;;;;;;0.22;0.22;;;;;;;5.63;75.47;98638.41;5013409;28;20120;-84
2021/03/24 08:32:04;;;;;;;0.75;0.50;;;;;;;5.97;73.79;98603.63;5012994;28;20141;-83
2021/03/24 08:34:57;;;;;;;0.30;0.30;;;;;;;6.72;70.99;98652.16;5013176;28;20034;-83
2021/03/24 08:37:40;;;;;;;0.20;0.20;;;;;;;6.65;70.31;98622.81;5013100;28;20060;-84
2021/03/24 08:40:24;;;;;;;0.20;0.20;;;;;;;7.01;70.54;98612.13;5012981;28;20079;-82
2021/03/24 08:43:14;;;;;;;0.20;0.20;;;;;;;7.10;68.24;98592.41;5012705;28;20046;-82
2021/03/24 08:45:58;;;;;;;0.20;0.20;;;;;;;7.29;66.91;98661.16;5012973;28;20044;-82
2021/03/24 08:48:40;;;;;;;0.20;0.20;;;;;;;7.21;66.60;98593.78;5012504;28;20055;-82
2021/03/24 08:51:34;;;;;;;1.95;1.85;;;;;;;7.71;60.02;98647.97;5012956;28;20026;-81
2021/03/24 08:54:31;;;;;;;0.63;0.63;;;;;;;7.45;57.83;98652.31;5003363;28;20164;-82
2021/03/24 08:57:54;;;;;;;3.72;0.60;;;;;;;6.87;56.71;98657.03;5012569;28;20069;-84
2021/03/24 09:00:31;;;;;;;2.15;2.05;;;;;;;6.50;57.97;98599.50;5011799;28;20030;-82
2021/03/24 09:03:22;;;;;;;1.52;1.33;;;;;;;6.70;59.86;98674.53;4995154;28;20037;-84
2021/03/24 09:06:20;;;;;;;0.30;0.30;;;;;;;6.29;59.97;98655.41;5017581;28;20049;-85
2021/03/24 09:08:45;;;;;;;;;;;;;;;6.09;58.88;98662.66;5005631;28;20096;-87
2021/03/24 09:11:28;;;;;;;1.27;0.55;;;;;;;5.49;62.25;98646.72;5028746;28;20302;-88
2021/03/24 09:14:14;;;;;;;0.68;0.68;;;;;;;5.15;56.76;98671.25;5012828;28;20111;-87
2021/03/24 09:17:04;;;;;;;0.20;0.20;;;;;;;4.81;55.49;98677.31;5012435;28;20113;-88
2021/03/24 09:19:43;;;;;;;0.28;0.28;;;;;;;4.57;56.95;98663.72;5012369;28;20120;-87
2021/03/24 09:22:37;;;;;;;0.20;0.20;;;;;;;4.17;55.31;98662.28;5012422;28;20497;-88
2021/03/24 09:25:15;;;;;;;0.20;0.20;;;;;;;3.77;57.14;98620.59;5012429;28;20034;-89
2021/03/24 09:28:12;;;;;;;0.20;0.20;;;;;;;3.69;56.11;98622.53;5012394;28;20200;-89
2021/03/24 09:31:06;;;;;;;0.20;0.20;;;;;;;3.85;55.17;98695.94;5012216;28;20173;-88
2021/03/24 09:33:44;;;;;;;0.20;0.20;;;;;;;3.39;54.55;98624.91;5012193;28;20029;-88
2021/03/24 09:36:21;;;;;;;0.20;0.20;;;;;;;3.85;55.04;98708.81;5012297;28;20034;-89
2021/03/24 09:38:48;;;;;;;0.20;0.20;;;;;;;3.98;55.04;98688.09;5012874;28;20033;-88
2021/03/24 09:41:17;;;;;;;0.20;0.20;;;;;;;3.84;52.23;98686.16;5012194;28;20030;-87
2021/03/24 09:43:46;;;;;;;0.20;0.20;;;;;;;3.94;55.19;98709.19;5012124;28;20034;-89
2021/03/24 09:46:33;;;;;;;0.20;0.20;;;;;;;3.85;55.23;98635.81;5012069;28;20041;-87
2021/03/24 09:49:02;;;;;;;0.20;0.20;;;;;;;3.85;52.34;98665.09;5012656;28;20478;-88
2021/03/24 09:51:28;;;;;;;0.20;0.20;;;;;;;4.15;55.75;98679.09;5012240;28;20049;-89
2021/03/24 09:54:06;;;;;;;0.20;0.20;;;;;;;4.61;54.36;98692.63;5011969;28;20470;-89
2021/03/24 09:56:32;;;;;;;2.05;1.52;;;;;;;4.91;51.09;98720.25;5012176;28;20033;-88
2021/03/24 09:59:13;;;;;;;0.20;0.20;;;;;;;4.87;52.74;98678.44;5012038;28;20026;-86
2021/03/24 10:02:02;;;;;;;0.20;0.20;;;;;;;4.99;49.12;98722.97;5011787;28;20119;-88
2021/03/24 10:04:54;;;;;;;0.30;0.30;;;;;;;5.33;50.77;98737.66;5011678;28;20101;-83
2021/03/24 10:07:30;;;;;;;0.20;0.20;;;;;;;5.49;50.99;98735.19;5011514;28;20050;-85
2021/03/24 10:10:05;;;;;;;0.20;0.20;;;;;;;5.34;50.13;98739.22;5012069;28;20504;-85
2021/03/24 10:12:31;;;;;;;0.20;0.20;;;;;;;5.47;50.08;98715.66;5012241;28;20030;-86
2021/03/24 10:15:20;;;;;;;0.20;0.20;;;;;;;5.84;48.93;98711.47;5012579;28;20033;-86
2021/03/24 10:17:59;;;;;;;0.20;0.20;;;;;;;5.90;50.55;98696.16;5011814;28;20030;-84
2021/03/24 10:20:39;;;;;;;0.40;0.40;;;;;;;6.30;47.45;98753.00;5012278;28;20084;-86
2021/03/24 10:23:10;;;;;;;0.20;0.20;;;;;;;5.84;48.75;98701.28;5011573;28;20022;-86
2021/03/24 10:25:44;;;;;;;0.20;0.20;;;;;;;6.16;49.00;98777.81;5011858;28;20486;-85
2021/03/24 10:28:21;;;;;;;3.30;0.60;;;;;;;5.80;48.90;98716.19;5012301;28;20053;-86
2021/03/24 10:31:01;;;;;;;0.20;0.20;;;;;;;5.45;46.06;98778.28;5011676;28;20080;-87
2021/03/24 10:33:40;;;;;;;0.20;0.20;;;;;;;5.56;48.83;98784.47;5011808;28;20116;-88
2021/03/24 10:36:16;;;;;;;0.20;0.20;;;;;;;5.45;49.00;98783.75;5014736;28;20107;-87
2021/03/24 10:38:47;;;;;;;0.30;0.30;;;;;;;5.11;48.47;98793.72;5015557;28;20083;-87
2021/03/24 10:41:27;;;;;;;0.20;0.20;;;;;;;4.78;56.11;98784.84;5015231;28;20037;-86
2021/03/24 10:44:30;;;;;;;0.20;0.20;;;;;;;4.97;66.11;98782.81;5015762;28;20025;-87
2021/03/24 10:47:29;;;;;;;0.22;0.22;;;;;;;4.80;56.37;98768.03;5002196;28;20041;-87
2021/03/24 10:50:13;;;;;;;0.20;0.20;;;;;;;5.21;51.79;98803.84;5014647;28;20125;-89
2021/03/24 10:53:16;;;;;;;0.80;0.80;;;;;;;4.94;66.57;98802.78;5015115;28;20512;-89
2021/03/24 10:56:00;;;;;;;1.20;1.20;;;;;;;4.60;68.74;98729.38;5013297;28;20030;-87
2021/03/24 10:58:38;;;;;;;0.32;0.32;;;;;;;5.18;64.70;98788.22;5014247;28;20037;-88
2021/03/24 11:01:13;;;;;;;0.20;0.20;;;;;;;4.35;70.06;98740.38;5014614;28;20030;-88
2021/03/24 11:04:10;;;;;;;0.88;0.88;;;;;;;4.40;68.38;98763.84;5014485;28;20041;-89
2021/03/24 11:06:43;;;;;;;0.50;0.50;;;;;;;4.14;70.48;98737.69;5014438;28;20572;-90
2021/03/24 11:09:13;;;;;;;0.60;0.60;;;;;;;4.07;66.66;98743.94;5014587;28;20038;-90
2021/03/24 11:11:42;;;;;;;0.60;0.60;;;;;;;4.64;67.26;98760.22;5014301;28;20033;-90
2021/03/24 11:14:20;;;;;;;0.55;0.55;;;;;;;4.89;67.56;98768.38;5014306;28;20026;-87
2021/03/24 11:17:00;;;;;;;6.20;3.10;;;;;;;5.01;68.18;98776.16;5014739;28;20033;-90
2021/03/24 11:19:28;;;;;;;0.30;0.30;;;;;;;4.76;68.04;98761.78;5014187;28;20104;-87
2021/03/24 11:22:19;;;;;;;0.20;0.20;;;;;;;4.56;67.92;98797.00;5013993;28;20932;-87
2021/03/24 11:24:50;;;;;;;0.45;0.45;;;;;;;4.13;69.88;98729.88;5014322;28;20064;-88
2021/03/24 11:27:22;;;;;;;9.68;0.73;;;;;;;4.45;66.49;98728.66;5014296;28;20038;-88
2021/03/24 11:29:53;;;;;;;0.22;0.22;;;;;;;4.64;65.17;98795.06;5013584;28;20053;-86
2021/03/24 11:32:44;;;;;;;1.02;0.93;;;;;;;4.71;65.80;98787.59;5013778;28;20038;-88
2021/03/24 11:35:22;;;;;;;0.75;0.75;;;;;;;4.69;64.55;98759.06;5013420;28;20022;-90
2021/03/24 11:38:10;;;;;;;0.45;0.45;;;;;;;4.84;64.88;98736.72;5013539;28;20033;-89
2021/03/24 11:40:43;;;;;;;0.35;0.35;;;;;;;4.54;65.33;98769.25;5013846;28;20025;-88
2021/03/24 11:43:21;;;;;;;0.40;0.40;;;;;;;4.06;62.92;98722.44;5030327;28;20065;-88
2021/03/24 11:45:47;;;;;;;0.50;0.50;;;;;;;4.20;62.41;98735.34;5013509;28;20036;-86
2021/03/24 11:48:28;;;;;;;0.30;0.30;;;;;;;4.53;61.38;98786.84;5013440;28;20041;-89
2021/03/24 11:51:20;;;;;;;0.20;0.20;;;;;;;4.58;62.14;98805.59;5013680;28;20033;-89
2021/03/24 11:54:14;;;;;;;0.20;0.20;;;;;;;4.75;62.60;98773.91;5013525;28;20034;-86
2021/03/24 11:57:19;;;;;;;0.77;0.77;;;;;;;5.15;62.58;98787.03;5013291;28;20030;-88
2021/03/24 12:00:07;;;;;;;11.68;8.50;;;;;;;4.94;62.11;98789.09;5013379;28;20038;-87
2021/03/24 12:03:10;;;;;;;1.10;1.10;;;;;;;5.24;63.24;98787.38;5013409;28;20038;-87
2021/03/24 12:05:38;;;;;;;0.40;0.40;;;;;;;5.13;64.60;98745.56;5013173;28;20046;-85
2021/03/24 12:08:37;;;;;;;6.72;1.20;;;;;;;5.90;56.98;98789.41;5013220;28;20092;-87
2021/03/24 12:11:12;;;;;;;0.28;0.28;;;;;;;5.83;57.77;98771.00;5013269;28;20505;-87
2021/03/24 12:13:38;;;;;;;0.73;0.65;;;;;;;6.00;58.46;98777.56;5013129;28;20030;-88
2021/03/24 12:16:06;;;;;;;0.20;0.20;;;;;;;5.85;58.79;98735.72;5012936;28;20030;-86
2021/03/24 12:18:52;;;;;;;0.20;0.20;;;;;;;5.41;58.94;98790.44;5013341;28;20054;-87
2021/03/24 12:21:23;;;;;;;0.65;0.65;;;;;;;5.25;48.59;98725.94;5013130;28;20044;-87
2021/03/24 12:23:51;;;;;;;0.28;0.28;;;;;;;5.69;47.34;98780.09;5013221;28;20026;-87
2021/03/24 12:26:38;;;;;;;0.20;0.20;;;;;;;5.89;52.47;98760.41;5013273;28;20137;-87
2021/03/24 12:29:13;;;;;;;0.47;0.47;;;;;;;5.23;51.07;98752.97;5013727;28;20108;-85